KLWS

Lewiston-Nez Perce County Airport

Lewiston, Idaho, USA
METAR KLWS 150256Z 00000KT 10SM CLR 31/M03 A2984 RMK AO2 SLP095 T03111028 56010
Observed Flight Rules
Aug-15 @ 02:56 UTC (40 minutes ago) Visual Flight Rules
Visibility Clouds
10 miles
  • Clear skies
Temperatures Readings
Current 31°C / 88°F
Dewpoint -3°C / 27°F
Humidity 11%
Altimeter 29.84" Hg
Pressure 1009.5 hPa
Elevation 438
METAR KLWS 150256Z 00000KT 10SM CLR 31/M03 A2984 RMK AO2 SLP095 T03111028 56010
Observed Flight Rules
Aug-15 @ 02:56 UTC
(40 minutes ago)
VFR
Clouds
  • Clear skies
Temperature Dewpoint
31°C / 88°F -3°C / 27°F
Humidity Altimeter Pressure
11% 29.84" Hg 1009.5 hPa